createdAt,value
2022-09-06T00:00:27.826Z,74.72
2022-09-06T00:02:56.065Z,75.03
2022-09-06T00:05:23.633Z,74.75
2022-09-06T00:07:51.061Z,75.14
2022-09-06T00:10:18.848Z,74.65
2022-09-06T00:12:47.798Z,74.66
2022-09-06T00:15:15.272Z,74.15
2022-09-06T00:17:45.137Z,74.55
2022-09-06T00:20:12.623Z,74.49
2022-09-06T00:22:40.106Z,74.78
2022-09-06T00:25:08.480Z,74.15
2022-09-06T00:27:36.040Z,74.53
2022-09-06T00:30:04.804Z,74.71
2022-09-06T00:32:33.072Z,75.01
2022-09-06T00:35:00.484Z,75.27
2022-09-06T00:37:27.945Z,75.20
2022-09-06T00:39:55.722Z,75.37
2022-09-06T00:42:23.217Z,75.16
2022-09-06T00:44:50.955Z,75.50
2022-09-06T00:47:19.406Z,75.44
2022-09-06T00:49:51.142Z,75.57
2022-09-06T00:52:19.939Z,75.62
2022-09-06T00:54:50.019Z,75.77
2022-09-06T00:57:18.675Z,75.76
2022-09-06T00:59:48.203Z,75.58
2022-09-06T01:02:15.874Z,75.96
2022-09-06T01:04:45.460Z,75.92
2022-09-06T01:07:16.129Z,75.71
2022-09-06T01:10:06.183Z,75.83
2022-09-06T01:13:01.921Z,76.17
2022-09-06T01:15:44.134Z,76.62
2022-09-06T01:18:14.803Z,76.51
2022-09-06T01:21:00.393Z,76.62
2022-09-06T01:24:12.691Z,76.45
2022-09-06T01:27:13.049Z,76.32
2022-09-06T01:29:56.612Z,76.14
2022-09-06T01:32:42.759Z,76.68
2022-09-06T01:35:13.139Z,76.34
2022-09-06T01:37:41.299Z,76.85
2022-09-06T01:40:09.211Z,76.80
2022-09-06T01:42:38.435Z,76.54
2022-09-06T01:45:14.940Z,76.64
2022-09-06T01:48:22.943Z,76.57
2022-09-06T01:51:02.433Z,76.82
2022-09-06T01:54:02.596Z,77.13
2022-09-06T01:56:38.836Z,77.07
2022-09-06T01:59:13.336Z,76.92
2022-09-06T02:02:07.841Z,77.10
2022-09-06T02:04:47.787Z,77.35
2022-09-06T02:07:24.159Z,77.27
2022-09-06T02:10:08.679Z,77.74
2022-09-06T02:12:40.820Z,77.59
2022-09-06T02:15:13.727Z,77.32
2022-09-06T02:17:46.487Z,77.43
2022-09-06T02:20:22.969Z,77.26
2022-09-06T02:22:53.435Z,77.23
2022-09-06T02:25:26.715Z,77.70
2022-09-06T02:27:55.569Z,77.87
2022-09-06T02:30:23.528Z,77.88
2022-09-06T02:32:58.117Z,78.06
2022-09-06T02:35:26.306Z,78.47
2022-09-06T02:37:54.180Z,78.07
2022-09-06T02:40:21.643Z,78.11
2022-09-06T02:42:49.355Z,77.69
2022-09-06T02:45:16.814Z,77.92
2022-09-06T02:47:44.240Z,77.83
2022-09-06T02:50:13.293Z,77.53
2022-09-06T02:52:41.036Z,77.12
2022-09-06T02:55:08.753Z,77.12
2022-09-06T02:57:36.519Z,77.42
2022-09-06T03:00:04.760Z,77.56
2022-09-06T03:02:32.267Z,77.24
2022-09-06T03:05:00.124Z,77.45
2022-09-06T03:07:27.584Z,77.62
2022-09-06T03:09:56.967Z,77.68
2022-09-06T03:12:24.663Z,78.56
2022-09-06T03:14:54.968Z,78.62
2022-09-06T03:17:22.654Z,78.28
2022-09-06T03:19:50.431Z,78.21
2022-09-06T03:22:17.964Z,78.89
2022-09-06T03:24:45.381Z,78.34
2022-09-06T03:27:13.474Z,78.61
2022-09-06T03:29:40.896Z,79.54
2022-09-06T03:32:08.356Z,79.77
2022-09-06T03:34:36.182Z,79.47
2022-09-06T03:37:03.677Z,79.69
2022-09-06T03:39:31.130Z,79.38
2022-09-06T03:41:58.924Z,78.65
2022-09-06T03:44:26.361Z,78.53
2022-09-06T03:46:54.094Z,78.45
2022-09-06T03:49:21.896Z,78.86
2022-09-06T03:51:49.359Z,78.92
2022-09-06T03:54:16.819Z,78.96
2022-09-06T03:56:44.523Z,78.79
2022-09-06T03:59:11.991Z,77.88
2022-09-06T04:01:39.481Z,77.30
2022-09-06T04:04:07.242Z,76.70
2022-09-06T04:06:34.826Z,76.48
2022-09-06T04:09:02.268Z,77.08
2022-09-06T04:11:30.112Z,76.87
2022-09-06T04:13:57.532Z,77.50
2022-09-06T04:16:24.984Z,77.04
2022-09-06T04:18:53.133Z,77.59
2022-09-06T04:21:20.620Z,78.34
2022-09-06T04:23:48.127Z,78.51
2022-09-06T04:26:15.848Z,78.67
2022-09-06T04:28:43.404Z,77.92
2022-09-06T04:31:10.903Z,78.25
2022-09-06T04:33:38.734Z,78.30
2022-09-06T04:36:08.874Z,78.81
2022-09-06T04:38:42.191Z,79.26
2022-09-06T04:41:12.763Z,79.79
2022-09-06T04:43:40.454Z,79.73
2022-09-06T04:46:17.179Z,79.68
2022-09-06T04:48:44.935Z,79.76
2022-09-06T04:51:12.387Z,79.79
2022-09-06T04:53:39.840Z,79.73
2022-09-06T04:56:07.760Z,79.38
2022-09-06T04:58:35.310Z,79.93
2022-09-06T05:01:02.774Z,80.35
2022-09-06T05:03:30.608Z,80.36
2022-09-06T05:06:07.460Z,80.00
2022-09-06T05:08:38.289Z,79.82
2022-09-06T05:11:07.085Z,80.33
2022-09-06T05:13:35.648Z,80.81
2022-09-06T05:16:07.630Z,80.11
2022-09-06T05:18:36.151Z,80.57
2022-09-06T05:21:03.854Z,81.22
2022-09-06T05:23:31.397Z,81.98
2022-09-06T05:25:59.124Z,81.86
2022-09-06T05:28:26.697Z,81.95
2022-09-06T05:30:54.200Z,82.00
2022-09-06T05:33:22.858Z,81.86
2022-09-06T05:35:50.343Z,82.19
2022-09-06T05:38:18.068Z,82.00
2022-09-06T05:40:45.968Z,81.03
2022-09-06T05:43:13.393Z,80.86
2022-09-06T05:45:40.980Z,80.60
2022-09-06T05:48:08.776Z,80.47
2022-09-06T05:50:36.205Z,80.83
2022-09-06T05:53:03.660Z,80.67
2022-09-06T05:55:31.395Z,80.75
2022-09-06T05:57:58.853Z,81.05
2022-09-06T06:00:26.266Z,80.61
2022-09-06T06:02:54.012Z,80.65
2022-09-06T06:05:22.499Z,80.12
2022-09-06T06:07:50.035Z,79.37
2022-09-06T06:10:17.756Z,79.15
2022-09-06T06:12:45.189Z,78.75
2022-09-06T06:15:12.639Z,78.34
2022-09-06T06:17:40.365Z,77.90
2022-09-06T06:20:08.475Z,77.58
2022-09-06T06:22:35.920Z,76.90
2022-09-06T06:25:03.832Z,75.96
2022-09-06T06:27:31.302Z,74.74
2022-09-06T06:29:58.780Z,73.01
2022-09-06T06:32:26.642Z,71.62
2022-09-06T06:34:54.111Z,69.50
2022-09-06T06:37:21.550Z,68.18
2022-09-06T06:39:49.395Z,67.74
2022-09-06T06:42:16.882Z,66.72
2022-09-06T06:44:46.223Z,65.28
2022-09-06T06:47:14.394Z,63.00
2022-09-06T06:49:41.868Z,61.42
2022-09-06T06:52:09.308Z,58.85
2022-09-06T06:54:37.550Z,58.49
2022-09-06T06:57:05.232Z,56.83
2022-09-06T06:59:32.688Z,56.68
2022-09-06T07:02:00.505Z,55.37
2022-09-06T07:04:28.052Z,55.00
2022-09-06T07:12:31.726Z,54.43
2022-09-06T07:14:59.457Z,52.82
2022-09-06T07:17:26.885Z,53.00
2022-09-06T07:22:38.148Z,50.90
2022-09-06T07:25:06.124Z,50.53
2022-09-06T07:27:49.808Z,50.00
2022-09-06T07:30:20.011Z,49.75
2022-09-06T07:32:48.091Z,49.35
2022-09-06T07:35:15.919Z,48.68
2022-09-06T07:37:43.638Z,48.68
2022-09-06T07:40:11.466Z,47.95
2022-09-06T07:42:39.038Z,47.87
2022-09-06T07:45:07.188Z,47.20
2022-09-06T07:53:14.067Z,45.84
2022-09-06T07:56:00.503Z,45.07
2022-09-06T07:58:29.660Z,45.50
2022-09-06T08:01:20.294Z,44.52
2022-09-06T08:03:48.148Z,45.05
2022-09-06T08:06:15.637Z,44.81
2022-09-06T08:08:58.996Z,44.27
2022-09-06T08:11:30.994Z,43.74
2022-09-06T08:14:00.319Z,42.75
2022-09-06T08:16:29.704Z,43.12
2022-09-06T08:19:00.032Z,42.77
2022-09-06T08:21:32.113Z,42.57
2022-09-06T08:24:01.127Z,42.15
2022-09-06T08:26:29.902Z,41.39
2022-09-06T08:29:00.339Z,41.13
2022-09-06T08:31:30.496Z,40.80
2022-09-06T08:33:59.684Z,40.47
2022-09-06T08:36:31.406Z,40.56
2022-09-06T08:39:00.679Z,40.02
2022-09-06T08:41:31.147Z,40.36
2022-09-06T08:47:07.880Z,39.05
2022-09-06T08:49:48.052Z,38.58
2022-09-06T08:52:24.388Z,39.65
2022-09-06T08:55:01.808Z,38.88
2022-09-06T08:57:40.400Z,39.70
2022-09-06T09:00:12.294Z,39.52
2022-09-06T09:02:51.801Z,39.26
2022-09-06T09:05:28.724Z,38.07
2022-09-06T09:08:02.507Z,36.90
2022-09-06T09:10:34.788Z,37.71
2022-09-06T09:13:05.068Z,37.05
2022-09-06T09:15:40.221Z,36.48
2022-09-06T09:18:08.420Z,36.65
2022-09-06T09:20:38.146Z,35.97
2022-09-06T09:23:05.620Z,35.06
2022-09-06T09:25:34.736Z,35.26
2022-09-06T09:28:02.869Z,36.38
2022-09-06T09:30:48.796Z,35.79
2022-09-06T09:33:25.039Z,34.92
2022-09-06T09:35:52.942Z,35.16
2022-09-06T09:38:24.435Z,35.12
2022-09-06T09:41:02.936Z,35.26
2022-09-06T09:43:33.672Z,34.60
2022-09-06T09:46:16.320Z,33.99
2022-09-06T09:49:07.800Z,33.51
2022-09-06T09:51:38.243Z,34.31
2022-09-06T09:54:08.872Z,33.82
2022-09-06T09:56:41.441Z,33.86
2022-09-06T09:59:29.812Z,32.83
2022-09-06T10:02:01.481Z,34.22
2022-09-06T10:04:44.324Z,33.60
2022-09-06T10:07:17.681Z,34.03
2022-09-06T10:09:57.078Z,33.74
2022-09-06T10:12:31.211Z,33.61
2022-09-06T10:15:02.404Z,32.99
2022-09-06T10:17:52.601Z,33.65
2022-09-06T10:20:33.398Z,33.04
2022-09-06T10:23:16.378Z,32.14
2022-09-06T10:25:49.735Z,32.95
2022-09-06T10:28:20.218Z,33.44
2022-09-06T10:31:08.091Z,33.86
2022-09-06T10:34:00.141Z,32.98
2022-09-06T10:36:36.715Z,32.25
2022-09-06T10:39:16.755Z,33.08
2022-09-06T10:42:08.935Z,33.05
2022-09-06T10:45:12.618Z,32.00
2022-09-06T10:48:13.937Z,32.02
2022-09-06T10:51:20.716Z,31.20
2022-09-06T10:54:06.923Z,30.24
2022-09-06T10:56:49.688Z,31.70
2022-09-06T10:59:41.666Z,30.23
2022-09-06T11:02:18.757Z,31.02
2022-09-06T11:10:38.131Z,32.28
2022-09-06T11:13:14.933Z,31.32
2022-09-06T11:16:02.148Z,32.57
2022-09-06T11:19:09.275Z,32.29
2022-09-06T11:22:34.555Z,33.09
2022-09-06T11:25:23.784Z,30.60
2022-09-06T11:27:58.077Z,30.53
2022-09-06T11:30:27.453Z,31.79
2022-09-06T11:33:39.733Z,30.47
2022-09-06T11:36:59.645Z,30.97
2022-09-06T11:42:45.593Z,31.84
2022-09-06T11:45:59.872Z,31.88
2022-09-06T11:48:29.044Z,31.92
2022-09-06T11:50:59.832Z,31.87
2022-09-06T11:53:51.576Z,31.13
2022-09-06T11:56:32.829Z,31.01
2022-09-06T11:59:12.437Z,31.15
2022-09-06T12:01:41.073Z,32.13
2022-09-06T12:04:10.404Z,31.41
2022-09-06T12:06:43.791Z,31.87
2022-09-06T12:09:37.771Z,30.86
2022-09-06T12:12:05.759Z,30.48
2022-09-06T12:14:42.688Z,30.91
2022-09-06T12:17:11.382Z,29.68
2022-09-06T12:19:48.696Z,30.85
2022-09-06T12:22:32.818Z,31.50
2022-09-06T12:25:20.487Z,32.10
2022-09-06T12:27:57.814Z,31.77
2022-09-06T12:30:43.878Z,31.16
2022-09-06T12:33:20.511Z,32.18
2022-09-06T12:38:25.260Z,33.52
2022-09-06T12:40:58.551Z,33.28
2022-09-06T12:43:27.166Z,32.73
2022-09-06T12:45:55.048Z,32.69
2022-09-06T12:48:35.416Z,33.20
2022-09-06T12:51:05.395Z,32.00
2022-09-06T12:53:34.510Z,32.39
2022-09-06T12:56:10.148Z,33.02
2022-09-06T12:58:39.585Z,32.42
2022-09-06T13:01:17.938Z,32.74
2022-09-06T13:03:50.654Z,33.41
2022-09-06T13:06:27.034Z,33.15
2022-09-06T13:08:57.444Z,32.75
2022-09-06T13:11:34.262Z,32.48
2022-09-06T13:14:13.857Z,31.23
2022-09-06T13:16:51.180Z,31.28
2022-09-06T13:19:39.278Z,31.76
2022-09-06T13:22:11.016Z,30.75
2022-09-06T13:24:47.090Z,31.47
2022-09-06T13:27:35.785Z,32.55
2022-09-06T13:30:09.565Z,32.16
2022-09-06T13:32:46.586Z,30.95
2022-09-06T13:35:23.999Z,31.39
2022-09-06T13:37:51.582Z,32.59
2022-09-06T13:41:07.085Z,32.50
2022-09-06T13:43:29.372Z,31.96
2022-09-06T13:46:06.471Z,32.30
2022-09-06T13:48:34.666Z,31.85
2022-09-06T13:51:07.147Z,31.66
2022-09-06T13:53:35.184Z,31.27
2022-09-06T13:56:03.163Z,32.37
2022-09-06T13:58:30.741Z,32.43
2022-09-06T14:00:58.743Z,32.85
2022-09-06T14:03:32.512Z,32.36
2022-09-06T14:06:00.883Z,32.59
2022-09-06T14:08:43.649Z,32.55
2022-09-06T14:11:17.840Z,32.40
2022-09-06T14:13:45.624Z,31.98
2022-09-06T14:16:13.401Z,32.62
2022-09-06T14:18:41.473Z,31.64
2022-09-06T14:21:09.369Z,31.79
2022-09-06T14:23:36.816Z,32.39
2022-09-06T14:26:04.766Z,31.88
2022-09-06T14:28:34.146Z,31.45
2022-09-06T14:31:16.664Z,32.00
2022-09-06T14:33:44.729Z,31.68
2022-09-06T14:36:17.624Z,31.43
2022-09-06T14:38:45.923Z,31.03
2022-09-06T14:41:14.846Z,31.61
2022-09-06T14:43:44.200Z,30.55
2022-09-06T14:46:14.962Z,32.05
2022-09-06T14:48:43.296Z,30.95
2022-09-06T14:51:13.624Z,30.92
2022-09-06T14:53:43.437Z,31.65
2022-09-06T14:56:12.115Z,31.87
2022-09-06T14:58:40.396Z,31.68
2022-09-06T15:01:13.066Z,31.65
2022-09-06T15:03:43.007Z,31.20
2022-09-06T15:06:11.081Z,31.45
2022-09-06T15:08:38.958Z,31.46
2022-09-06T15:11:08.311Z,31.15
2022-09-06T15:13:37.395Z,30.55
2022-09-06T15:16:06.851Z,31.12
2022-09-06T15:18:35.393Z,31.20
2022-09-06T15:21:15.300Z,31.58
2022-09-06T15:23:43.984Z,31.31
2022-09-06T15:26:13.678Z,30.98
2022-09-06T15:28:43.300Z,31.22
2022-09-06T15:31:12.245Z,31.86
2022-09-06T15:33:40.995Z,31.78
2022-09-06T15:36:10.267Z,31.68
2022-09-06T15:38:47.399Z,31.88
2022-09-06T15:41:27.100Z,32.19
2022-09-06T15:43:57.098Z,32.51
2022-09-06T15:46:45.392Z,32.79
2022-09-06T15:49:16.203Z,33.55
2022-09-06T15:51:45.146Z,33.66
2022-09-06T15:54:14.669Z,33.41
2022-09-06T15:56:42.884Z,33.67
2022-09-06T15:59:12.042Z,33.91
2022-09-06T16:01:39.810Z,33.84
2022-09-06T16:04:07.780Z,34.03
2022-09-06T16:06:42.619Z,34.39
2022-09-06T16:09:17.627Z,34.42
2022-09-06T16:11:45.248Z,34.19
2022-09-06T16:14:15.438Z,35.18
2022-09-06T16:16:43.653Z,35.50
2022-09-06T16:19:12.698Z,35.53
2022-09-06T16:21:42.685Z,35.51
2022-09-06T16:24:12.234Z,35.93
2022-09-06T16:26:43.691Z,36.29
2022-09-06T16:29:13.595Z,36.20
2022-09-06T16:31:41.473Z,36.70
2022-09-06T16:34:09.993Z,36.62
2022-09-06T16:36:37.727Z,36.55
2022-09-06T16:39:07.258Z,37.40
2022-09-06T16:41:43.210Z,37.15
2022-09-06T16:44:16.303Z,37.49
2022-09-06T16:46:46.642Z,37.79
2022-09-06T16:49:17.142Z,38.44
2022-09-06T16:51:45.801Z,38.77
2022-09-06T16:54:15.476Z,39.29
2022-09-06T16:56:44.060Z,40.75
2022-09-06T16:59:12.648Z,40.20
2022-09-06T17:01:44.356Z,40.06
2022-09-06T17:04:13.087Z,41.45
2022-09-06T17:06:46.921Z,40.60
2022-09-06T17:09:17.769Z,40.85
2022-09-06T17:11:45.355Z,41.47
2022-09-06T17:14:12.962Z,42.11
2022-09-06T17:16:59.409Z,42.61
2022-09-06T17:19:27.624Z,43.64
2022-09-06T17:21:55.519Z,44.52
2022-09-06T17:24:23.456Z,44.50
2022-09-06T17:26:50.924Z,43.07
2022-09-06T17:29:19.555Z,42.78
2022-09-06T17:31:48.072Z,43.05
2022-09-06T17:34:15.890Z,44.58
2022-09-06T17:36:43.840Z,44.06
2022-09-06T17:39:17.695Z,43.54
2022-09-06T17:41:53.638Z,43.62
2022-09-06T17:44:23.316Z,43.80
2022-09-06T17:47:11.483Z,44.99
2022-09-06T17:49:39.446Z,44.35
2022-09-06T17:52:07.195Z,43.90
2022-09-06T17:54:34.668Z,44.42
2022-09-06T17:57:02.083Z,44.08
2022-09-06T17:59:35.063Z,44.02
2022-09-06T18:02:04.328Z,44.10
2022-09-06T18:04:32.322Z,44.60
2022-09-06T18:06:59.868Z,45.03
2022-09-06T18:09:27.374Z,44.65
2022-09-06T18:11:55.511Z,48.72
2022-09-06T18:14:23.258Z,48.89
2022-09-06T18:16:52.540Z,48.57
2022-09-06T18:19:21.127Z,47.96
2022-09-06T18:21:49.070Z,48.74
2022-09-06T18:24:17.001Z,48.19
2022-09-06T18:26:46.498Z,48.85
2022-09-06T18:29:16.615Z,48.15
2022-09-06T18:31:44.719Z,48.35
2022-09-06T18:34:12.682Z,49.23
2022-09-06T18:36:40.285Z,50.13
2022-09-06T18:39:08.359Z,50.46
2022-09-06T18:41:54.657Z,51.20
2022-09-06T18:44:22.524Z,51.46
2022-09-06T18:46:50.413Z,50.11
2022-09-06T18:49:18.474Z,49.74
2022-09-06T18:51:46.030Z,49.96
2022-09-06T18:54:14.773Z,50.74
2022-09-06T18:56:46.042Z,51.68
2022-09-06T18:59:14.113Z,51.44
2022-09-06T19:01:43.068Z,51.65
2022-09-06T19:04:11.851Z,50.98
2022-09-06T19:06:41.753Z,50.61
2022-09-06T19:09:12.603Z,51.14
2022-09-06T19:11:42.782Z,52.47
2022-09-06T19:14:10.349Z,53.67
2022-09-06T19:16:38.106Z,53.30
2022-09-06T19:19:07.579Z,53.55
2022-09-06T19:21:40.778Z,54.77
2022-09-06T19:24:11.607Z,55.04
2022-09-06T19:26:41.754Z,54.89
2022-09-06T19:29:17.489Z,55.50
2022-09-06T19:31:47.084Z,56.31
2022-09-06T19:34:16.208Z,55.78
2022-09-06T19:36:44.896Z,57.26
2022-09-06T19:39:17.991Z,57.84
2022-09-06T19:41:46.987Z,57.93
2022-09-06T19:44:16.299Z,57.97
2022-09-06T19:46:46.734Z,57.32
2022-09-06T19:49:17.018Z,57.25
2022-09-06T19:51:46.541Z,57.33
2022-09-06T19:54:15.595Z,58.84
2022-09-06T19:56:44.449Z,59.38
2022-09-06T19:59:13.376Z,57.63
2022-09-06T20:01:43.425Z,58.26
2022-09-06T20:04:13.645Z,58.48
2022-09-06T20:06:41.590Z,57.40
2022-09-06T20:09:10.590Z,57.93
2022-09-06T20:11:41.324Z,59.08
2022-09-06T20:14:10.277Z,58.22
2022-09-06T20:16:41.372Z,59.44
2022-09-06T20:19:12.159Z,59.46
2022-09-06T20:21:40.685Z,59.12
2022-09-06T20:24:08.443Z,59.04
2022-09-06T20:26:35.897Z,60.27
2022-09-06T20:29:05.068Z,60.72
2022-09-06T20:31:33.378Z,61.18
2022-09-06T20:34:03.261Z,61.07
2022-09-06T20:36:31.397Z,58.97
2022-09-06T20:38:58.899Z,60.56
2022-09-06T20:41:27.311Z,61.55
2022-09-06T20:43:59.566Z,61.43
2022-09-06T20:46:29.625Z,61.94
2022-09-06T20:48:59.827Z,61.38
2022-09-06T20:51:27.689Z,62.01
2022-09-06T20:53:57.320Z,61.43
2022-09-06T20:56:27.946Z,61.77
2022-09-06T20:58:57.938Z,61.61
2022-09-06T21:01:28.019Z,62.67
2022-09-06T21:03:58.039Z,61.96
2022-09-06T21:06:28.129Z,61.10
2022-09-06T21:08:56.676Z,61.96
2022-09-06T21:11:24.267Z,62.88
2022-09-06T21:13:55.827Z,63.05
2022-09-06T21:16:26.118Z,63.05
2022-09-06T21:18:59.604Z,63.46
2022-09-06T21:21:28.597Z,63.77
2022-09-06T21:23:56.471Z,64.00
2022-09-06T21:26:24.063Z,64.49
2022-09-06T21:28:51.531Z,64.00
2022-09-06T21:31:24.624Z,63.51
2022-09-06T21:33:54.288Z,63.96
2022-09-06T21:36:29.972Z,62.50
2022-09-06T21:39:06.141Z,62.06
2022-09-06T21:41:37.036Z,64.00
2022-09-06T21:44:06.748Z,64.08
2022-09-06T21:46:36.722Z,63.62
2022-09-06T21:49:09.751Z,62.90
2022-09-06T21:51:37.759Z,62.46
2022-09-06T21:54:06.187Z,62.45
2022-09-06T21:56:36.028Z,63.62
2022-09-06T21:59:05.131Z,64.14
2022-09-06T22:01:34.486Z,63.40
2022-09-06T22:04:02.743Z,64.05
2022-09-06T22:06:32.303Z,64.65
2022-09-06T22:09:02.687Z,65.03
2022-09-06T22:11:32.991Z,64.89
2022-09-06T22:14:05.808Z,65.01
2022-09-06T22:16:35.876Z,65.48
2022-09-06T22:19:04.950Z,64.92
2022-09-06T22:21:33.680Z,65.71
2022-09-06T22:24:03.788Z,66.19
2022-09-06T22:26:33.087Z,65.99
2022-09-06T22:29:03.458Z,66.21
2022-09-06T22:31:32.962Z,66.18
2022-09-06T22:34:01.026Z,65.86
2022-09-06T22:36:28.773Z,65.25
2022-09-06T22:38:59.317Z,64.69
2022-09-06T22:41:30.006Z,65.86
2022-09-06T22:43:59.691Z,65.48
2022-09-06T22:46:28.034Z,65.07
2022-09-06T22:48:55.611Z,66.14
2022-09-06T22:51:23.072Z,65.83
2022-09-06T22:53:51.109Z,65.68
2022-09-06T22:56:18.824Z,65.50
2022-09-06T22:58:46.272Z,66.24
2022-09-06T23:01:16.244Z,65.97
2022-09-06T23:03:44.684Z,65.60
2022-09-06T23:06:12.659Z,66.82
2022-09-06T23:08:41.495Z,67.41
2022-09-06T23:11:14.375Z,66.48
2022-09-06T23:13:46.193Z,66.82
2022-09-06T23:16:17.368Z,65.31
2022-09-06T23:18:46.044Z,67.12
2022-09-06T23:21:17.350Z,66.53
2022-09-06T23:23:46.787Z,67.10
2022-09-06T23:26:17.631Z,66.60
2022-09-06T23:28:46.079Z,66.11
2022-09-06T23:31:16.919Z,67.91
2022-09-06T23:33:44.721Z,67.17
2022-09-06T23:36:14.628Z,68.14
2022-09-06T23:38:42.800Z,66.62
2022-09-06T23:41:11.264Z,67.74
2022-09-06T23:43:40.139Z,68.33
2022-09-06T23:46:08.629Z,68.66
2022-09-06T23:48:36.857Z,68.62
2022-09-06T23:51:05.534Z,67.51
2022-09-06T23:53:33.172Z,65.99
2022-09-06T23:56:01.316Z,66.98
2022-09-06T23:58:28.841Z,67.89
